Time;durP1;ratioP1;P1;durP2;ratioP2;P2;SDS_P1;SDS_P2;PMS_P1;PMS_P2;Temp;Humidity;BMP_temperature;BMP_pressure;BME280_temperature;BME280_humidity;BME280_pressure;Samples;Min_cycle;Max_cycle;Signal;HPM_P1;HPM_P2
2023/12/30 00:01:57;;;;;;;12.93;1.80;;;;;;;10.39;96.95;100061.13;8305595;28;20029;-57
2023/12/30 00:05:57;;;;;;;11.90;2.33;;;;;;;10.36;96.74;100058.72;8308006;28;20076;-55
2023/12/30 00:09:58;;;;;;;19.75;2.13;;;;;;;10.46;96.85;100059.53;8311382;28;20044;-56
2023/12/30 00:14:00;;;;;;;14.18;1.73;;;;;;;10.59;95.70;100057.31;8306610;28;20030;-56
2023/12/30 00:18:01;;;;;;;13.52;2.42;;;;;;;10.67;94.26;100052.00;8304465;28;20030;-55
2023/12/30 00:22:02;;;;;;;15.00;2.15;;;;;;;10.80;93.38;100057.88;8314814;28;20279;-55
2023/12/30 00:26:03;;;;;;;11.43;2.00;;;;;;;10.89;92.59;100062.34;8316731;28;20041;-56
2023/12/30 00:30:04;;;;;;;15.07;1.75;;;;;;;10.77;93.22;100063.59;8305899;28;20048;-55
2023/12/30 00:34:04;;;;;;;18.13;2.55;;;;;;;10.79;93.44;100072.41;8300471;28;20100;-56
2023/12/30 00:38:05;;;;;;;13.07;2.22;;;;;;;10.76;93.33;100061.88;8273111;28;20037;-56
2023/12/30 00:42:05;;;;;;;14.32;1.92;;;;;;;10.75;93.70;100065.59;8270677;28;20092;-55
2023/12/30 00:46:06;;;;;;;21.10;2.40;;;;;;;10.75;93.84;100076.44;8284884;28;20064;-55
2023/12/30 00:50:07;;;;;;;16.48;2.10;;;;;;;10.76;93.89;100083.53;8305812;28;20119;-56
2023/12/30 00:54:07;;;;;;;16.23;2.15;;;;;;;10.69;94.62;100077.03;8303694;28;20029;-55
2023/12/30 00:58:08;;;;;;;13.15;1.40;;;;;;;10.70;94.70;100089.53;8296049;28;20377;-55
2023/12/30 01:02:08;;;;;;;16.05;2.33;;;;;;;10.68;94.81;100096.97;8260931;28;20050;-56
2023/12/30 01:06:09;;;;;;;11.50;1.50;;;;;;;10.63;94.40;100099.25;8250158;28;20265;-55
2023/12/30 01:10:10;;;;;;;10.65;2.47;;;;;;;10.65;94.50;100110.78;8268166;28;22317;-56
2023/12/30 01:14:11;;;;;;;10.80;1.40;;;;;;;10.69;93.39;100077.03;8247368;28;20331;-55
2023/12/30 01:18:12;;;;;;;9.52;1.35;;;;;;;10.70;92.42;100094.94;8254225;28;20423;-56
2023/12/30 01:22:12;;;;;;;12.60;1.60;;;;;;;10.64;92.74;100100.94;8248963;28;20092;-56
2023/12/30 01:26:13;;;;;;;17.02;2.22;;;;;;;10.70;92.24;100111.16;8260877;28;20045;-55
2023/12/30 01:30:13;;;;;;;11.52;2.10;;;;;;;10.77;91.61;100109.53;8319202;28;20034;-56
2023/12/30 01:34:14;;;;;;;11.23;1.70;;;;;;;10.78;91.34;100103.16;8307700;28;20471;-55
2023/12/30 01:38:14;;;;;;;10.50;2.38;;;;;;;10.84;90.03;100107.97;8286802;28;20044;-56
2023/12/30 01:42:16;;;;;;;17.52;1.90;;;;;;;10.79;90.35;100104.84;8302130;28;20045;-56
2023/12/30 01:46:16;;;;;;;12.45;1.60;;;;;;;10.81;89.69;100113.66;8287596;28;20539;-57
2023/12/30 01:50:17;;;;;;;8.30;1.48;;;;;;;10.88;89.27;100109.34;8250963;28;20300;-55
2023/12/30 01:54:19;;;;;;;11.45;1.50;;;;;;;10.81;89.28;100129.91;8284895;28;20045;-56
2023/12/30 01:58:20;;;;;;;8.00;1.67;;;;;;;10.93;88.61;100134.09;8265282;28;20038;-56
2023/12/30 02:02:22;;;;;;;13.30;1.73;;;;;;;10.82;89.12;100147.81;8262671;28;20068;-55
2023/12/30 02:06:25;;;;;;;12.32;2.15;;;;;;;10.74;89.33;100144.16;8252711;28;20071;-57
2023/12/30 02:10:26;;;;;;;11.60;1.63;;;;;;;10.65;89.64;100156.75;8251251;28;20092;-57
2023/12/30 02:14:28;;;;;;;13.07;1.75;;;;;;;10.58;89.62;100161.03;8248636;28;20042;-57
2023/12/30 02:18:28;;;;;;;12.45;1.55;;;;;;;10.59;89.65;100162.75;8250698;28;20124;-56
2023/12/30 02:22:29;;;;;;;11.23;2.25;;;;;;;10.68;88.84;100164.56;8260654;28;20057;-56
2023/12/30 02:26:30;;;;;;;11.85;1.63;;;;;;;10.59;89.12;100170.84;8245230;28;20046;-55
2023/12/30 02:30:31;;;;;;;11.93;1.65;;;;;;;10.60;88.94;100179.78;8249269;28;20234;-55
2023/12/30 02:34:32;;;;;;;11.25;1.67;;;;;;;10.59;89.48;100176.25;8222318;28;20148;-52
2023/12/30 02:38:32;;;;;;;12.27;1.52;;;;;;;10.59;89.52;100184.38;8210941;28;20141;-54
2023/12/30 02:42:32;;;;;;;13.60;2.60;;;;;;;10.55;90.12;100188.34;8231587;28;20712;-54
2023/12/30 02:46:33;;;;;;;11.70;1.73;;;;;;;10.59;89.37;100186.22;8202634;28;20439;-53
2023/12/30 02:50:33;;;;;;;10.05;2.38;;;;;;;10.61;89.25;100192.34;8204736;28;20336;-54
2023/12/30 02:54:35;;;;;;;14.82;1.95;;;;;;;10.55;90.15;100184.81;8209880;28;20310;-55
2023/12/30 02:58:36;;;;;;;16.52;2.05;;;;;;;10.57;89.88;100194.47;8206009;28;20434;-54
2023/12/30 03:02:37;;;;;;;15.43;2.00;;;;;;;10.57;90.14;100201.72;8231034;28;20033;-53
2023/12/30 03:06:37;;;;;;;16.83;2.10;;;;;;;10.64;89.81;100187.47;8248155;28;20638;-54
2023/12/30 03:10:38;;;;;;;12.15;2.05;;;;;;;10.61;90.32;100197.75;8265933;28;20041;-55
2023/12/30 03:14:39;;;;;;;10.30;1.77;;;;;;;10.54;90.79;100202.88;8252180;28;20044;-55
2023/12/30 03:18:40;;;;;;;15.05;1.80;;;;;;;10.52;90.81;100204.88;8256175;28;20545;-54
2023/12/30 03:22:41;;;;;;;9.30;1.33;;;;;;;10.54;90.34;100204.72;8253247;28;20669;-54
2023/12/30 03:26:42;;;;;;;7.97;1.40;;;;;;;10.53;89.85;100195.78;8251798;28;20088;-53
2023/12/30 03:30:42;;;;;;;11.02;2.05;;;;;;;10.52;89.86;100199.47;8253821;28;20171;-54
2023/12/30 03:34:43;;;;;;;12.45;1.98;;;;;;;10.36;90.44;100210.03;8252410;28;20370;-54
2023/12/30 03:38:43;;;;;;;11.25;1.30;;;;;;;10.24;91.70;100213.91;8288004;28;20053;-54
2023/12/30 03:42:44;;;;;;;11.55;1.50;;;;;;;10.12;92.06;100206.13;8314282;28;20046;-56
2023/12/30 03:46:44;;;;;;;11.73;1.40;;;;;;;10.05;92.69;100208.53;8308467;28;20089;-54
2023/12/30 03:50:45;;;;;;;8.20;1.33;;;;;;;10.09;92.57;100214.53;8308548;28;20045;-55
2023/12/30 03:54:45;;;;;;;16.23;1.73;;;;;;;10.18;91.54;100217.19;8307312;28;20502;-55
2023/12/30 03:58:46;;;;;;;12.23;1.80;;;;;;;10.24;91.07;100208.50;8312167;28;20048;-57
2023/12/30 04:02:47;;;;;;;7.88;1.50;;;;;;;10.24;91.70;100205.81;8278394;28;20091;-58
2023/12/30 04:06:48;;;;;;;13.90;2.00;;;;;;;10.23;92.15;100204.13;8253021;28;20274;-57
2023/12/30 04:10:48;;;;;;;17.45;2.30;;;;;;;10.14;93.18;100213.09;8254186;28;20220;-58
2023/12/30 04:14:51;;;;;;;16.30;2.97;;;;;;;10.07;94.47;100209.28;8258040;28;20436;-57
2023/12/30 04:18:52;;;;;;;14.90;1.83;;;;;;;10.00;94.58;100214.34;8224727;28;20443;-56
2023/12/30 04:22:54;;;;;;;17.80;1.70;;;;;;;9.97;96.52;100211.09;8216117;28;20033;-54
2023/12/30 04:26:56;;;;;;;17.20;2.20;;;;;;;9.98;96.26;100220.91;8218934;28;20061;-55
2023/12/30 04:30:56;;;;;;;13.32;1.75;;;;;;;9.97;96.84;100224.59;8255526;28;20041;-55
2023/12/30 04:34:57;;;;;;;13.63;2.00;;;;;;;10.05;96.28;100219.31;8275384;28;20042;-53
2023/12/30 04:38:58;;;;;;;11.23;1.70;;;;;;;10.07;96.42;100236.28;8236411;28;20037;-56
2023/12/30 04:42:58;;;;;;;13.70;2.17;;;;;;;10.10;96.38;100243.22;8222537;28;20351;-57
2023/12/30 04:46:59;;;;;;;16.65;3.00;;;;;;;10.06;95.70;100239.94;8223469;28;20385;-57
2023/12/30 04:50:59;;;;;;;13.15;1.85;;;;;;;10.00;95.99;100241.38;8219887;28;20199;-56
2023/12/30 04:55:00;;;;;;;14.73;2.03;;;;;;;9.97;95.98;100247.06;8225662;28;20104;-57
2023/12/30 04:59:00;;;;;;;16.17;2.40;;;;;;;9.96;95.86;100260.69;8219805;28;20195;-56
2023/12/30 05:03:01;;;;;;;16.05;2.00;;;;;;;9.91;96.25;100268.34;8237916;28;20742;-56
2023/12/30 05:07:02;;;;;;;16.75;1.88;;;;;;;9.92;96.28;100256.59;8291858;28;20063;-55
2023/12/30 05:11:06;;;;;;;11.32;2.03;;;;;;;10.00;96.04;100272.91;8306889;28;20496;-55
2023/12/30 05:15:07;;;;;;;11.10;1.50;;;;;;;10.02;96.18;100261.00;8304988;28;20400;-55
2023/12/30 05:19:07;;;;;;;13.18;1.95;;;;;;;10.07;95.43;100262.44;8307573;28;20212;-55
2023/12/30 05:23:08;;;;;;;11.55;1.58;;;;;;;10.16;96.21;100259.72;8303611;28;20050;-56
2023/12/30 05:27:08;;;;;;;14.93;1.75;;;;;;;10.18;95.34;100271.22;8308278;28;20042;-56
2023/12/30 05:31:09;;;;;;;15.60;2.28;;;;;;;10.21;94.90;100270.94;8270489;28;20033;-57
2023/12/30 05:35:10;;;;;;;11.55;1.50;;;;;;;10.16;94.94;100275.94;8251886;28;20034;-55
2023/12/30 05:39:12;;;;;;;18.02;2.22;;;;;;;10.15;94.68;100274.22;8252659;28;20200;-56
2023/12/30 05:43:13;;;;;;;10.63;2.08;;;;;;;10.19;94.35;100278.34;8250967;28;20550;-57
2023/12/30 05:47:13;;;;;;;12.88;1.40;;;;;;;10.13;94.44;100278.94;8250146;28;20717;-56
2023/12/30 05:51:14;;;;;;;8.57;1.95;;;;;;;10.20;94.49;100290.84;8247929;28;20061;-56
2023/12/30 05:55:15;;;;;;;14.02;1.65;;;;;;;10.21;94.74;100295.25;8251389;28;20041;-55
2023/12/30 05:59:15;;;;;;;13.88;2.33;;;;;;;10.22;94.58;100294.28;8283088;28;20053;-57
2023/12/30 06:03:15;;;;;;;13.77;2.17;;;;;;;10.22;94.85;100293.41;8304317;28;20454;-55
2023/12/30 06:07:16;;;;;;;8.90;2.03;;;;;;;10.27;93.92;100307.34;8277431;28;20042;-54
2023/12/30 06:11:16;;;;;;;18.33;2.28;;;;;;;10.31;93.56;100308.75;8253353;28;20413;-55
2023/12/30 06:15:20;;;;;;;22.48;1.98;;;;;;;10.32;93.79;100311.31;8254100;28;20431;-57
2023/12/30 06:19:20;;;;;;;11.90;2.17;;;;;;;10.28;94.76;100304.47;8306364;28;20041;-55
2023/12/30 06:23:21;;;;;;;15.20;1.98;;;;;;;10.25;95.07;100307.50;8296381;28;20519;-57
2023/12/30 06:27:21;;;;;;;12.43;2.13;;;;;;;10.22;95.75;100302.38;8251223;28;20760;-54
2023/12/30 06:31:22;;;;;;;13.88;2.45;;;;;;;10.17;96.45;100299.25;8249692;28;20281;-56
2023/12/30 06:35:22;;;;;;;15.73;1.63;;;;;;;10.23;95.27;100301.38;8249487;28;20346;-55
2023/12/30 06:39:23;;;;;;;13.10;1.73;;;;;;;10.25;95.10;100310.19;8250534;28;20511;-54
2023/12/30 06:43:23;;;;;;;11.40;1.80;;;;;;;10.31;94.45;100317.69;8250729;28;20045;-56
2023/12/30 06:47:23;;;;;;;17.83;1.98;;;;;;;10.31;95.05;100323.09;8250597;28;20729;-55
2023/12/30 06:51:24;;;;;;;12.35;1.73;;;;;;;10.30;95.05;100329.50;8271766;28;20034;-55
2023/12/30 06:55:24;;;;;;;11.18;1.60;;;;;;;10.33;94.13;100333.75;8311173;28;20037;-55
2023/12/30 06:59:25;;;;;;;19.73;2.53;;;;;;;10.27;94.30;100335.19;8280045;28;20038;-54
2023/12/30 07:03:25;;;;;;;14.60;1.98;;;;;;;10.18;94.59;100341.47;8254973;28;20306;-54
2023/12/30 07:07:26;;;;;;;8.45;1.10;;;;;;;10.15;94.40;100351.72;8256702;28;20108;-56
2023/12/30 07:11:26;;;;;;;10.13;1.80;;;;;;;10.07;94.67;100360.53;8241007;28;20038;-56
2023/12/30 07:15:27;;;;;;;13.73;1.77;;;;;;;10.02;94.72;100365.44;8224347;28;20035;-53
2023/12/30 07:19:27;;;;;;;10.80;1.90;;;;;;;10.16;92.78;100373.19;8223913;28;20047;-55
2023/12/30 07:23:28;;;;;;;9.27;1.75;;;;;;;10.14;92.63;100380.56;8286354;28;20101;-53
2023/12/30 07:27:28;;;;;;;12.23;1.60;;;;;;;9.97;94.30;100375.81;8278336;28;20436;-55
2023/12/30 07:31:29;;;;;;;7.00;1.33;;;;;;;9.88;94.15;100376.66;8275337;28;20133;-54
2023/12/30 07:35:29;;;;;;;9.07;1.25;;;;;;;9.92;94.36;100378.09;8284175;28;20439;-55
2023/12/30 07:39:32;;;;;;;11.52;1.65;;;;;;;9.92;95.62;100372.69;8309453;28;20049;-55
2023/12/30 07:43:33;;;;;;;11.52;1.40;;;;;;;9.88;95.74;100387.44;8308446;28;20120;-54
2023/12/30 07:47:33;;;;;;;10.80;1.65;;;;;;;9.82;96.39;100388.00;8302218;28;20052;-54
2023/12/30 07:51:34;;;;;;;10.90;1.45;;;;;;;9.81;97.14;100386.31;8306625;28;20096;-55
2023/12/30 07:55:34;;;;;;;11.88;2.35;;;;;;;9.86;96.76;100389.47;8307700;28;20381;-54
2023/12/30 07:59:35;;;;;;;9.88;1.65;;;;;;;9.92;96.53;100395.13;8307245;28;20069;-54
2023/12/30 08:03:35;;;;;;;13.57;2.42;;;;;;;9.92;97.18;100399.69;8318352;28;20041;-55
2023/12/30 08:07:35;;;;;;;15.20;2.65;;;;;;;9.88;96.81;100398.25;8313703;28;20115;-54
2023/12/30 08:11:36;;;;;;;12.65;1.95;;;;;;;9.96;96.57;100401.13;8310130;28;20062;-55
2023/12/30 08:15:36;;;;;;;14.48;1.60;;;;;;;10.02;96.20;100406.81;8313563;28;20155;-54
2023/12/30 08:19:37;;;;;;;19.00;1.73;;;;;;;10.06;96.05;100412.78;8308112;28;20693;-55
2023/12/30 08:23:37;;;;;;;11.35;2.15;;;;;;;10.14;95.49;100425.63;8319618;28;20033;-54
2023/12/30 08:27:38;;;;;;;8.80;1.45;;;;;;;10.15;95.31;100422.78;8325464;28;20065;-54
2023/12/30 08:31:45;;;;;;;10.48;1.55;;;;;;;10.18;95.05;100433.31;8322312;28;20045;-54
2023/12/30 08:35:48;;;;;;;14.80;2.15;;;;;;;10.28;94.25;100427.94;8319863;28;20041;-54
2023/12/30 08:39:50;;;;;;;13.97;2.40;;;;;;;10.35;93.40;100429.91;8299528;28;20047;-55
2023/12/30 08:43:52;;;;;;;13.73;2.15;;;;;;;10.40;93.48;100433.03;8310327;28;20068;-55
2023/12/30 08:47:52;;;;;;;13.40;2.65;;;;;;;10.43;93.32;100446.25;8322573;28;20047;-55
2023/12/30 08:51:53;;;;;;;8.35;1.60;;;;;;;10.48;92.71;100452.13;8322606;28;20037;-54
2023/12/30 08:55:55;;;;;;;10.85;2.08;;;;;;;10.50;92.40;100444.72;8322545;28;20074;-54
2023/12/30 08:59:55;;;;;;;13.05;2.08;;;;;;;10.53;92.71;100433.63;8321351;28;20038;-54
2023/12/30 09:03:56;;;;;;;11.93;2.25;;;;;;;10.61;92.37;100452.69;8318004;28;20049;-55
2023/12/30 09:07:56;;;;;;;7.45;1.98;;;;;;;10.70;91.04;100456.41;8321980;28;20500;-54
2023/12/30 09:11:57;;;;;;;16.05;2.50;;;;;;;10.89;89.44;100445.56;8320864;28;20041;-55
2023/12/30 09:15:57;;;;;;;11.48;2.47;;;;;;;11.05;88.58;100449.38;8314370;28;20034;-55
2023/12/30 09:19:58;;;;;;;8.95;1.80;;;;;;;11.25;86.97;100464.56;8307158;28;20522;-57
2023/12/30 09:23:58;;;;;;;9.82;1.73;;;;;;;11.57;85.58;100459.63;8321226;28;20111;-55
2023/12/30 09:27:59;;;;;;;8.18;1.25;;;;;;;11.90;83.35;100466.34;8312484;28;20042;-55
2023/12/30 09:32:00;;;;;;;10.15;1.65;;;;;;;11.95;82.63;100452.34;8308928;28;20050;-53
2023/12/30 09:36:00;;;;;;;13.88;1.85;;;;;;;12.02;82.57;100458.88;8307425;28;20048;-56
2023/12/30 09:40:02;;;;;;;17.55;2.60;;;;;;;11.94;82.29;100456.91;8307278;28;20512;-54
2023/12/30 09:44:03;;;;;;;11.90;1.73;;;;;;;11.83;82.77;100465.22;8301948;28;20136;-55
2023/12/30 09:48:05;;;;;;;11.48;1.85;;;;;;;11.73;82.91;100464.44;8293042;28;20049;-54
2023/12/30 09:52:07;;;;;;;11.52;1.85;;;;;;;11.67;84.13;100468.59;8293212;28;20037;-57
2023/12/30 09:56:08;;;;;;;15.40;2.00;;;;;;;11.75;83.80;100468.69;8302876;28;20120;-56
2023/12/30 10:00:09;;;;;;;15.13;1.60;;;;;;;11.93;82.69;100472.31;8299470;28;20042;-56
2023/12/30 10:04:09;;;;;;;12.77;1.92;;;;;;;11.78;82.66;100462.13;8301457;28;20038;-55
2023/12/30 10:08:10;;;;;;;9.45;1.58;;;;;;;11.67;83.50;100465.88;8300632;28;20088;-56
2023/12/30 10:12:10;;;;;;;14.43;1.73;;;;;;;11.72;83.69;100466.25;8300780;28;20052;-56
2023/12/30 10:16:12;;;;;;;11.68;2.20;;;;;;;11.72;83.92;100468.16;8306574;28;20056;-55
2023/12/30 10:20:17;;;;;;;13.63;2.15;;;;;;;11.74;83.45;100456.16;8306709;28;20067;-57
2023/12/30 10:24:18;;;;;;;10.40;1.60;;;;;;;11.69;83.35;100453.03;8309221;28;20064;-56
2023/12/30 10:28:19;;;;;;;18.17;1.95;;;;;;;11.73;83.60;100442.75;8313383;28;20499;-56
2023/12/30 10:32:21;;;;;;;11.88;1.95;;;;;;;11.84;82.61;100446.13;8310659;28;20077;-57
2023/12/30 10:36:22;;;;;;;14.30;1.52;;;;;;;12.04;81.40;100436.03;8283455;28;20039;-56
2023/12/30 10:40:23;;;;;;;15.23;2.22;;;;;;;12.17;80.91;100430.25;8279475;28;20041;-58
2023/12/30 10:44:23;;;;;;;19.77;1.88;;;;;;;12.37;79.86;100421.81;8277926;28;20042;-58
2023/12/30 10:48:31;;;;;;;15.10;1.65;;;;;;;12.78;79.01;100423.06;8279944;28;20424;-56
2023/12/30 10:52:34;;;;;;;8.48;2.45;;;;;;;13.77;74.79;100415.22;8276606;28;20042;-55
2023/12/30 10:56:43;;;;;;;7.97;1.35;;;;;;;13.43;74.96;100419.81;8277814;28;20062;-55
2023/12/30 11:00:48;;;;;;;12.02;1.58;;;;;;;13.32;75.56;100404.63;8280029;28;20622;-57
2023/12/30 11:04:49;;;;;;;8.95;1.73;;;;;;;13.25;75.89;100400.00;8275650;28;20482;-57
2023/12/30 11:08:52;;;;;;;10.00;1.50;;;;;;;13.31;75.48;100407.50;8276877;28;20486;-56
2023/12/30 11:12:53;;;;;;;8.75;1.48;;;;;;;14.10;72.37;100411.63;8298046;28;20044;-56
2023/12/30 11:16:57;;;;;;;13.48;1.55;;;;;;;13.88;72.24;100406.78;8308788;28;20137;-56
2023/12/30 11:20:57;;;;;;;9.30;1.90;;;;;;;13.95;71.64;100407.81;8308418;28;20033;-56
2023/12/30 11:24:58;;;;;;;5.85;1.17;;;;;;;14.12;71.98;100406.84;8310701;28;20303;-56
2023/12/30 11:29:00;;;;;;;8.70;1.20;;;;;;;14.63;69.65;100400.31;8311159;28;20549;-55
2023/12/30 11:33:03;;;;;;;7.72;1.40;;;;;;;14.42;69.59;100400.81;8306477;28;20384;-56
2023/12/30 11:37:09;;;;;;;10.65;1.25;;;;;;;14.19;70.46;100404.31;8308788;28;20207;-56
2023/12/30 11:41:09;;;;;;;6.78;1.23;;;;;;;14.42;68.88;100408.97;8308725;28;20457;-56
2023/12/30 11:45:10;;;;;;;7.80;1.45;;;;;;;14.83;66.86;100398.97;8312855;28;20057;-56
2023/12/30 11:49:18;;;;;;;7.80;1.83;;;;;;;14.96;66.75;100396.59;8311850;28;20045;-57
2023/12/30 11:53:19;;;;;;;9.77;1.83;;;;;;;14.63;67.34;100387.59;8307780;28;20037;-56
2023/12/30 11:57:19;;;;;;;10.48;1.40;;;;;;;14.91;66.90;100380.75;8310800;28;20495;-57
2023/12/30 12:01:20;;;;;;;5.57;0.80;;;;;;;14.59;67.39;100383.50;8307875;28;20517;-57
2023/12/30 12:05:20;;;;;;;7.45;1.35;;;;;;;14.40;68.75;100380.25;8308254;28;20050;-57
2023/12/30 12:09:21;;;;;;;10.02;1.50;;;;;;;14.19;69.96;100378.00;8300971;28;20067;-52
2023/12/30 12:13:23;;;;;;;7.13;1.30;;;;;;;14.26;69.83;100370.88;8305626;28;20046;-56
2023/12/30 12:17:23;;;;;;;12.57;1.35;;;;;;;13.92;68.84;100378.25;8308046;28;20433;-57
2023/12/30 12:21:26;;;;;;;8.40;1.38;;;;;;;13.81;70.38;100362.25;8305766;28;20124;-55
2023/12/30 12:25:28;;;;;;;7.07;1.15;;;;;;;13.84;69.77;100356.47;8308250;28;20039;-56
2023/12/30 12:29:28;;;;;;;14.68;1.48;;;;;;;13.55;69.78;100345.19;8306807;28;20416;-58
2023/12/30 12:33:30;;;;;;;9.10;1.30;;;;;;;13.43;70.16;100339.19;8308821;28;20042;-58
2023/12/30 12:37:30;;;;;;;10.60;1.20;;;;;;;13.35;70.66;100341.00;8307928;28;20048;-57
2023/12/30 12:41:31;;;;;;;8.00;1.30;;;;;;;13.32;71.02;100335.91;8307410;28;20042;-55
2023/12/30 12:45:31;;;;;;;8.27;1.38;;;;;;;13.40;71.39;100338.66;8305683;28;20131;-57
2023/12/30 12:49:33;;;;;;;9.88;1.40;;;;;;;13.37;71.93;100331.72;8308839;28;20097;-57
2023/12/30 12:53:33;;;;;;;6.47;1.75;;;;;;;13.37;72.19;100325.41;8304055;28;20068;-58
2023/12/30 12:57:34;;;;;;;7.78;1.13;;;;;;;13.28;72.83;100312.81;8306791;28;20049;-58
2023/12/30 13:01:35;;;;;;;6.28;0.90;;;;;;;13.21;73.20;100309.06;8308781;28;20037;-56
2023/12/30 13:05:35;;;;;;;18.60;2.00;;;;;;;13.27;73.19;100313.84;8305249;28;20187;-57
2023/12/30 13:10:46;;;;;;;3.90;0.75;;;;;;;13.28;73.79;100301.94;8307279;28;20050;-57
2023/12/30 13:13:59;;;;;;;11.05;1.27;;;;;;;13.23;73.89;100304.28;8304902;28;20037;-56
2023/12/30 13:18:00;;;;;;;4.15;1.10;;;;;;;13.34;72.21;100304.00;8305835;28;20037;-56
2023/12/30 13:22:00;;;;;;;7.72;1.10;;;;;;;13.19;70.58;100300.22;8305355;28;20049;-57
2023/12/30 13:26:01;;;;;;;6.72;1.20;;;;;;;13.00;72.20;100289.59;8305493;28;20056;-58
2023/12/30 13:30:02;;;;;;;10.18;1.30;;;;;;;13.04;72.59;100285.53;8308174;28;20069;-58
2023/12/30 13:34:05;;;;;;;7.18;1.42;;;;;;;13.05;72.36;100292.69;8305514;28;20038;-57
2023/12/30 13:38:12;;;;;;;5.70;1.13;;;;;;;12.98;72.32;100288.88;8306974;28;20404;-56
2023/12/30 13:42:14;;;;;;;4.93;1.05;;;;;;;13.09;71.33;100280.50;8306431;28;20088;-57
2023/12/30 13:46:36;;;;;;;8.07;0.93;;;;;;;13.12;70.92;100282.88;8306776;28;20045;-57
2023/12/30 13:50:44;;;;;;;7.95;1.33;;;;;;;12.99;72.05;100274.31;8306031;28;20073;-55
2023/12/30 13:54:45;;;;;;;8.55;1.70;;;;;;;12.83;72.56;100276.91;8304435;28;20433;-56
2023/12/30 13:58:47;;;;;;;6.70;1.17;;;;;;;12.84;72.81;100274.03;8306210;28;20046;-55
2023/12/30 14:02:48;;;;;;;9.77;1.88;;;;;;;12.77;74.30;100266.69;8305784;28;20037;-57
2023/12/30 14:06:49;;;;;;;6.50;1.20;;;;;;;12.78;73.12;100273.84;8304472;28;20315;-56
2023/12/30 14:10:53;;;;;;;4.20;1.00;;;;;;;12.81;73.78;100268.94;8305231;28;20073;-55
2023/12/30 14:14:55;;;;;;;6.47;1.23;;;;;;;12.75;74.86;100260.59;8303687;28;20424;-55
2023/12/30 14:18:55;;;;;;;7.28;1.27;;;;;;;12.48;76.74;100260.78;8305729;28;20038;-56
2023/12/30 14:22:58;;;;;;;4.10;0.90;;;;;;;12.48;76.20;100258.06;8302763;28;20049;-53
2023/12/30 14:26:59;;;;;;;5.47;0.98;;;;;;;12.41;76.68;100251.56;8306552;28;20048;-55
2023/12/30 14:31:00;;;;;;;4.85;1.23;;;;;;;12.45;76.25;100255.66;8303037;28;20083;-54
2023/12/30 14:35:00;;;;;;;4.15;0.80;;;;;;;12.41;75.50;100248.88;8305262;28;20033;-55
2023/12/30 14:39:01;;;;;;;5.82;1.00;;;;;;;12.24;75.96;100247.03;8306040;28;20253;-55
2023/12/30 14:43:01;;;;;;;6.03;1.50;;;;;;;12.21;75.52;100233.78;8303855;28;20042;-55
2023/12/30 14:47:02;;;;;;;5.28;1.52;;;;;;;12.08;76.36;100244.19;8306129;28;20068;-55
2023/12/30 14:51:03;;;;;;;6.80;1.55;;;;;;;12.00;77.39;100239.56;8303818;28;20045;-55
2023/12/30 14:55:07;;;;;;;10.48;2.80;;;;;;;11.89;78.06;100237.94;8303788;28;20118;-55
2023/12/30 14:59:08;;;;;;;;;;;;;;;11.82;79.25;100236.88;8306881;28;20033;-55
2023/12/30 15:03:09;;;;;;;12.57;1.90;;;;;;;11.72;80.08;100229.81;8302869;28;20087;-56
2023/12/30 15:07:10;;;;;;;4.07;0.82;;;;;;;11.66;80.01;100231.31;8305234;28;20132;-56
2023/12/30 15:11:11;;;;;;;5.30;2.13;;;;;;;11.68;80.12;100218.44;8309762;28;20045;-57
2023/12/30 15:15:12;;;;;;;4.97;1.42;;;;;;;11.60;80.51;100215.66;8309237;28;20124;-55
2023/12/30 15:19:12;;;;;;;7.85;2.22;;;;;;;11.43;81.82;100208.34;8312025;28;20034;-56
2023/12/30 15:23:14;;;;;;;10.60;2.47;;;;;;;11.22;83.11;100199.66;8306646;28;20440;-56
2023/12/30 15:27:15;;;;;;;11.15;2.97;;;;;;;11.07;83.47;100206.59;8308308;28;20041;-55
2023/12/30 15:31:16;;;;;;;13.13;5.68;;;;;;;10.97;83.96;100194.13;8311870;28;20033;-56
2023/12/30 15:35:17;;;;;;;6.88;1.65;;;;;;;10.93;84.61;100199.00;8308341;28;20041;-56
2023/12/30 15:39:18;;;;;;;5.15;1.67;;;;;;;10.89;84.14;100196.75;8310731;28;20504;-57
2023/12/30 15:43:18;;;;;;;11.02;2.42;;;;;;;10.77;85.14;100193.38;8310173;28;20458;-57
2023/12/30 15:47:20;;;;;;;10.43;4.45;;;;;;;10.67;85.47;100192.56;8308319;28;20408;-56
2023/12/30 15:51:21;;;;;;;10.02;2.45;;;;;;;10.64;84.99;100192.88;8307285;28;20111;-56
2023/12/30 15:55:21;;;;;;;7.50;1.27;;;;;;;10.67;84.16;100195.28;8297770;28;20041;-56
2023/12/30 15:59:22;;;;;;;6.35;1.27;;;;;;;10.53;85.39;100182.25;8308985;28;20048;-56
2023/12/30 16:03:23;;;;;;;7.70;1.50;;;;;;;10.38;86.63;100183.75;8310110;28;20048;-57
2023/12/30 16:07:24;;;;;;;2.75;0.93;;;;;;;10.39;86.73;100181.88;8308011;28;20183;-54
2023/12/30 16:11:25;;;;;;;5.60;0.90;;;;;;;10.33;86.85;100183.31;8307663;28;20318;-56
2023/12/30 16:15:25;;;;;;;3.65;0.80;;;;;;;10.31;86.53;100185.31;8308020;28;20042;-56
2023/12/30 16:19:26;;;;;;;5.63;1.02;;;;;;;10.19;86.58;100175.69;8309829;28;20385;-56
2023/12/30 16:23:26;;;;;;;7.15;1.27;;;;;;;10.03;87.27;100180.81;8305928;28;20092;-56
2023/12/30 16:27:27;;;;;;;21.70;11.45;;;;;;;9.95;87.87;100186.09;8308339;28;20045;-55
2023/12/30 16:31:28;;;;;;;16.30;8.45;;;;;;;9.91;88.87;100181.97;8307681;28;20042;-56
2023/12/30 16:35:28;;;;;;;10.30;2.50;;;;;;;9.74;89.58;100185.41;8324458;28;20407;-56
2023/12/30 16:39:30;;;;;;;5.10;1.27;;;;;;;9.68;90.28;100172.47;8307540;28;20060;-56
2023/12/30 16:43:34;;;;;;;8.15;0.85;;;;;;;9.62;90.37;100171.22;8307558;28;20117;-56
2023/12/30 16:47:36;;;;;;;2.95;0.95;;;;;;;9.67;90.59;100157.28;8307372;28;20050;-56
2023/12/30 16:51:37;;;;;;;8.80;3.13;;;;;;;9.65;90.54;100160.13;8306848;28;20369;-56
2023/12/30 16:55:37;;;;;;;2.47;0.75;;;;;;;9.74;90.03;100163.81;8306396;28;20054;-55
2023/12/30 16:59:38;;;;;;;4.90;1.33;;;;;;;9.92;88.64;100159.38;8306328;28;20048;-57
2023/12/30 17:03:39;;;;;;;12.40;3.28;;;;;;;9.99;88.04;100158.66;8306358;28;20500;-57
2023/12/30 17:07:40;;;;;;;14.07;4.72;;;;;;;10.00;87.81;100181.09;8308692;28;20053;-56
2023/12/30 17:11:41;;;;;;;7.03;2.40;;;;;;;9.88;88.18;100175.00;8304462;28;20096;-58
2023/12/30 17:15:41;;;;;;;8.38;2.05;;;;;;;9.79;88.92;100169.63;8306266;28;20041;-56
2023/12/30 17:19:42;;;;;;;7.55;2.80;;;;;;;9.79;89.13;100172.34;8306098;28;20045;-57
2023/12/30 17:23:43;;;;;;;4.07;1.20;;;;;;;9.79;89.09;100172.34;8310320;28;20044;-57
2023/12/30 17:27:44;;;;;;;8.50;2.88;;;;;;;9.79;89.85;100166.94;8305684;28;20038;-57
2023/12/30 17:31:44;;;;;;;16.77;3.67;;;;;;;9.85;89.35;100166.34;8306172;28;20061;-57
2023/12/30 17:35:44;;;;;;;10.23;3.55;;;;;;;9.92;88.94;100164.78;8307093;28;20183;-56
2023/12/30 17:39:45;;;;;;;4.30;0.90;;;;;;;10.09;89.05;100155.94;8309187;28;20088;-55
2023/12/30 17:43:45;;;;;;;4.22;0.90;;;;;;;10.19;88.38;100154.09;8305725;28;20276;-56
2023/12/30 17:47:46;;;;;;;3.42;0.70;;;;;;;10.24;88.15;100153.66;8305515;28;20037;-57
2023/12/30 17:51:47;;;;;;;4.38;1.08;;;;;;;10.22;89.15;100148.41;8291138;28;20453;-57
2023/12/30 17:55:47;;;;;;;3.42;1.00;;;;;;;10.50;88.39;100150.13;8305006;28;20044;-56
2023/12/30 17:59:48;;;;;;;3.95;0.90;;;;;;;10.60;87.84;100141.94;8306602;28;20118;-55
2023/12/30 18:03:50;;;;;;;2.33;0.70;;;;;;;10.48;88.40;100130.50;8312154;28;20065;-57
2023/12/30 18:07:50;;;;;;;1.55;0.50;;;;;;;10.55;88.57;100123.47;8309810;28;20045;-56
2023/12/30 18:11:51;;;;;;;2.42;0.80;;;;;;;10.38;88.66;100116.19;8317286;28;20546;-55
2023/12/30 18:15:51;;;;;;;1.63;0.68;;;;;;;10.15;89.46;100124.81;8312287;28;20029;-57
2023/12/30 18:19:52;;;;;;;2.50;0.77;;;;;;;9.89;91.72;100122.69;8301455;28;20030;-56
2023/12/30 18:23:52;;;;;;;2.05;0.60;;;;;;;9.74;92.67;100115.22;8293937;28;20576;-56
2023/12/30 18:27:53;;;;;;;1.77;0.60;;;;;;;9.78;92.10;100106.69;8313406;28;20213;-55
2023/12/30 18:31:55;;;;;;;1.75;0.63;;;;;;;9.61;93.17;100109.28;8319948;28;20041;-56
2023/12/30 18:35:55;;;;;;;2.17;1.30;;;;;;;9.55;93.45;100102.59;8315449;28;20435;-55